This is the latest recevied weather packets stored in our database for station/object WE0DX-1. If no packets are shown the sender has not sent any weather packets the latest 10 day(s).
| Time | Temp. | Humidity | Pressure | Rain* | Wind** | Luminosity | Snow |
|---|---|---|---|---|---|---|---|
| 1777762392 | 17.78° C | 30% | 1018.1 hPa | 0 mm | - | 32 W/m² | - |
| 1777762088 | 17.78° C | 29% | 1018.1 hPa | 0 mm | - | 32 W/m² | - |
| 1777761784 | 18.89° C | 27% | 1018 hPa | 0 mm | - | 33 W/m² | - |
| 1777761482 | 17.22° C | 29% | 1018 hPa | 0 mm | - | 34 W/m² | - |
| 1777761180 | 17.78° C | 29% | 1018.1 hPa | 0 mm | - | 34 W/m² | - |
| 1777760877 | 17.78° C | 29% | 1018.3 hPa | 0 mm | - | 35 W/m² | - |
| 1777760575 | 17.22° C | 32% | 1018.4 hPa | 0 mm | - | 35 W/m² | - |
| 1777760270 | 17.22° C | 30% | 1018.4 hPa | 0 mm | - | 37 W/m² | - |
| 1777759967 | 17.22° C | 30% | 1018.3 hPa | 0 mm | - | 38 W/m² | - |
| 1777759664 | 17.78° C | 29% | 1018.4 hPa | 0 mm | - | 131 W/m² | - |
| 1777759359 | 17.22° C | 33% | 1018.5 hPa | 0 mm | - | 39 W/m² | - |
| 1777759056 | 17.22° C | 31% | 1018.5 hPa | 0 mm | - | 50 W/m² | - |
| 1777758754 | 16.67° C | 32% | 1018.4 hPa | 0 mm | - | 136 W/m² | - |
| 1777758451 | 16.67° C | 32% | 1018.4 hPa | 0 mm | - | 101 W/m² | - |
| 1777758148 | 17.22° C | 30% | 1018.6 hPa | 0 mm | - | 52 W/m² | - |
| 1777757845 | 16.67° C | 32% | 1018.5 hPa | 0 mm | - | 56 W/m² | - |
| 1777757542 | 17.22° C | 31% | 1018.6 hPa | 0 mm | - | 143 W/m² | - |
| 1777757241 | 16.67° C | 30% | 1018.7 hPa | 0 mm | - | 144 W/m² | - |
| 1777756939 | 16.67° C | 32% | 1018.8 hPa | 0 mm | - | 240 W/m² | - |
| 1777756634 | 16.67° C | 30% | 1018.7 hPa | 0 mm | - | 266 W/m² | - |
| 1777756331 | 17.78° C | 30% | 1018.9 hPa | 0 mm | - | 342 W/m² | - |
| 1777756028 | 17.22° C | 30% | 1018.8 hPa | 0 mm | - | 464 W/m² | - |
| 1777755726 | 17.22° C | 30% | 1018.9 hPa | 0 mm | - | 369 W/m² | - |
| 1777755423 | 16.67° C | 30% | 1018.8 hPa | 0 mm | - | 565 W/m² | - |
| 1777755118 | 16.67° C | 29% | 1019 hPa | 0 mm | - | 576 W/m² | - |
* Rain latest hour (hover to see other rain measurements)
** Current wind speed in m/s (hover to see current wind gust speed)